»·PEaware :: UPS916 KSDF-KONT

UPS916 :: KSDF-KONT

FLIGHT INFORMATION

Flight Status: Arrived
Operator:
United Parcel Service
More flights by this operator :: More flights under this callsign
Pilot: Andrew C. (28419)
Aircraft: BOEING 767-300
(B763)
More flights by this aircraft type
Origin: KSDF Louisville Intl-Standiford
United States
Destination: KONT Ontario Intl
United States
More flights between these airports :: More routes between these airports
Route: APALO6 APALO PXV FAM KK45G KK45A/N0500F340 KD42U RSK J64 PGS MARUE JCKIE2
File this flight plan on PilotEdge
Remarks: RMK / SIMBRIEF
Altitude:
(Current/Filed)
34,000ft
Speed:
(Current/Filed)
506kts
Departed: 08-Oct-20 05:48 PM
Arrived: 08-Oct-20 08:48 PM
Distance/Time
Traveled:
1555nm/3:00
Distance/Time
To Go:
Arrived

Flight Plot

Page will automatically refresh every two minutes.

Flight plan parsing failed; only flown route is shown


Map Options




Map Legend


Flown Route
Filed Route
Departure Airport
Arrival Airport
Navaid (VOR, NDB)
Fix

Horizontal Profiles

Position Reports

Time Latitude Longitude Heading Altitude Ground
Speed
08-Oct-20 17:22 38.169916 -85.737487 200 484ft 0kts
08-Oct-20 17:23 38.169916 -85.737487 200 484ft 0kts
08-Oct-20 17:24 38.169916 -85.737487 200 484ft 0kts
08-Oct-20 17:25 38.169916 -85.737487 200 484ft 0kts
08-Oct-20 17:26 38.169916 -85.737487 200 483ft 0kts
08-Oct-20 17:27 38.169916 -85.737487 200 483ft 0kts
08-Oct-20 17:28 38.169916 -85.737487 200 483ft 0kts
08-Oct-20 17:29 38.169916 -85.737487 200 483ft 0kts
08-Oct-20 17:30 38.169916 -85.737487 200 483ft 0kts
08-Oct-20 17:31 38.169916 -85.737487 200 483ft 0kts
08-Oct-20 17:32 38.169916 -85.737486 200 483ft 0kts
08-Oct-20 17:33 38.169916 -85.737486 200 483ft 0kts
08-Oct-20 17:34 38.169916 -85.737486 200 483ft 0kts
08-Oct-20 17:35 38.169916 -85.737486 200 483ft 0kts
08-Oct-20 17:36 38.170323 -85.737183 245 483ft 2kts
08-Oct-20 17:37 38.170321 -85.736770 291 483ft 0kts
08-Oct-20 17:38 38.170321 -85.736770 291 483ft 0kts
08-Oct-20 17:39 38.170321 -85.736770 291 483ft 0kts
08-Oct-20 17:40 38.170321 -85.736770 291 483ft 0kts
08-Oct-20 17:41 38.170321 -85.736770 291 483ft 0kts
08-Oct-20 17:42 38.170321 -85.736770 291 483ft 0kts
08-Oct-20 17:43 38.170321 -85.736770 291 483ft 0kts
08-Oct-20 17:44 38.170718 -85.738046 291 483ft 16kts
08-Oct-20 17:45 38.169618 -85.741444 164 483ft 17kts
08-Oct-20 17:46 38.161738 -85.738838 166 483ft 31kts
08-Oct-20 17:47 38.162342 -85.740654 345 483ft 77kts
08-Oct-20 17:48 38.205266 -85.756268 333 2055ft 199kts
08-Oct-20 17:49 38.259383 -85.795808 328 4504ft 240kts
08-Oct-20 17:50 38.273333 -85.879204 251 7799ft 268kts
08-Oct-20 17:51 38.199179 -85.972370 224 11472ft 323kts
08-Oct-20 17:52 38.068210 -86.154672 254 16754ft 402kts
08-Oct-20 17:53 38.040339 -86.424898 265 22625ft 432kts
08-Oct-20 17:54 38.018104 -86.706541 264 28052ft 442kts
08-Oct-20 17:55 37.995159 -86.987383 262 31987ft 408kts
08-Oct-20 17:56 37.973751 -87.242240 262 31977ft 410kts
08-Oct-20 17:57 37.950864 -87.507352 262 31974ft 410kts
08-Oct-20 17:58 37.928058 -87.764639 261 31980ft 411kts
08-Oct-20 17:59 37.904071 -88.021387 261 31972ft 411kts
08-Oct-20 18:00 37.881268 -88.259819 261 31971ft 411kts
08-Oct-20 18:01 37.855507 -88.523152 261 31969ft 411kts
08-Oct-20 18:02 37.832010 -88.758060 260 31980ft 410kts
08-Oct-20 18:03 37.808545 -88.988252 260 31971ft 412kts
08-Oct-20 18:04 37.783847 -89.225724 259 31954ft 413kts
08-Oct-20 18:05 37.757283 -89.475654 259 31951ft 414kts
08-Oct-20 18:06 37.730884 -89.719547 258 31957ft 412kts
08-Oct-20 18:07 37.705125 -89.952639 258 31968ft 413kts
08-Oct-20 18:08 37.678425 -90.189959 258 31968ft 413kts
08-Oct-20 18:09 37.666839 -90.444079 263 31968ft 417kts
08-Oct-20 18:10 37.658446 -90.700721 262 31977ft 419kts
08-Oct-20 18:11 37.648365 -90.986717 262 31972ft 422kts
08-Oct-20 18:12 37.637478 -91.275533 262 31952ft 425kts
08-Oct-20 18:13 37.625679 -91.569421 262 31951ft 428kts
08-Oct-20 18:14 37.613559 -91.853590 261 31956ft 429kts
08-Oct-20 18:15 37.600274 -92.148745 261 31953ft 431kts
08-Oct-20 18:16 37.586206 -92.444409 261 31950ft 430kts
08-Oct-20 18:17 37.571769 -92.732724 261 31959ft 431kts
08-Oct-20 18:18 37.557544 -93.003974 262 31944ft 434kts
08-Oct-20 18:19 37.542658 -93.275855 262 31924ft 437kts
08-Oct-20 18:20 37.526187 -93.564117 262 31921ft 440kts
08-Oct-20 18:21 37.510214 -93.832613 262 31927ft 442kts
08-Oct-20 18:23 37.502080 -94.098391 268 31890ft 448kts
08-Oct-20 18:24 37.508865 -94.376402 268 31887ft 446kts
08-Oct-20 18:25 37.514964 -94.667738 268 31890ft 446kts
08-Oct-20 18:26 37.520244 -94.953750 267 31891ft 448kts
08-Oct-20 18:27 37.525201 -95.264560 268 31888ft 450kts
08-Oct-20 18:28 37.529360 -95.576678 268 31886ft 452kts
08-Oct-20 18:29 37.532635 -95.882445 268 31928ft 452kts
08-Oct-20 18:30 37.535142 -96.190458 268 31913ft 454kts
08-Oct-20 18:31 37.536871 -96.505031 268 31906ft 455kts
08-Oct-20 18:32 37.537718 -96.792065 267 31911ft 456kts
08-Oct-20 18:33 37.537874 -97.078097 268 31898ft 458kts
08-Oct-20 18:34 37.537275 -97.384983 268 31880ft 461kts
08-Oct-20 18:35 37.535855 -97.696372 268 31882ft 465kts
08-Oct-20 18:36 37.533534 -98.017804 268 31874ft 467kts
08-Oct-20 18:37 37.530317 -98.341367 268 31853ft 468kts
08-Oct-20 18:38 37.526218 -98.664779 268 31853ft 466kts
08-Oct-20 18:38 37.522126 -98.934332 268 31855ft 466kts
08-Oct-20 18:40 37.515370 -99.311589 268 31862ft 466kts
08-Oct-20 18:40 37.509787 -99.582083 268 31861ft 467kts
08-Oct-20 18:42 37.500966 -99.959516 268 31856ft 468kts
08-Oct-20 18:42 37.486608 -100.227463 266 31844ft 468kts
08-Oct-20 18:44 37.463853 -100.599845 265 33977ft 455kts
08-Oct-20 18:44 37.447271 -100.859580 265 33979ft 456kts
08-Oct-20 18:45 37.426359 -101.175027 265 33962ft 455kts
08-Oct-20 18:46 37.409217 -101.424484 265 33961ft 455kts
08-Oct-20 18:47 37.398053 -101.582945 265 33970ft 456kts
08-Oct-20 18:48 37.386653 -101.741655 264 33973ft 455kts
08-Oct-20 18:49 37.374987 -101.901086 264 33972ft 455kts
08-Oct-20 18:50 37.363194 -102.059263 264 33975ft 454kts
08-Oct-20 18:51 37.351207 -102.217254 264 33993ft 455kts
08-Oct-20 18:52 37.338935 -102.376116 264 33998ft 455kts
08-Oct-20 18:53 37.326539 -102.533817 264 33997ft 455kts
08-Oct-20 18:54 37.313877 -102.692157 264 34002ft 454kts
08-Oct-20 18:55 37.301046 -102.849920 264 34000ft 454kts
08-Oct-20 18:56 37.287943 -103.008416 264 33998ft 453kts
08-Oct-20 18:57 37.274685 -103.166216 264 33986ft 453kts
08-Oct-20 18:58 37.261270 -103.323351 264 33988ft 452kts
08-Oct-20 18:59 37.247661 -103.480218 264 33993ft 451kts
08-Oct-20 19:00 37.233869 -103.636775 264 34000ft 452kts
08-Oct-20 19:01 37.219743 -103.794760 264 34013ft 452kts
08-Oct-20 19:02 37.205471 -103.951858 264 34023ft 451kts
08-Oct-20 19:03 37.191070 -104.107935 265 34077ft 449kts
08-Oct-20 19:04 37.176507 -104.263819 265 34104ft 449kts
08-Oct-20 19:05 37.161734 -104.419629 265 34109ft 449kts
08-Oct-20 19:06 37.146748 -104.575352 265 34115ft 449kts
08-Oct-20 19:07 37.131578 -104.730650 266 34129ft 451kts
08-Oct-20 19:08 37.116179 -104.886538 266 34132ft 448kts
08-Oct-20 19:09 37.100630 -105.041710 266 34221ft 447kts
08-Oct-20 19:10 37.084778 -105.197792 266 34285ft 447kts
08-Oct-20 19:11 37.068836 -105.352668 266 34285ft 446kts
08-Oct-20 19:12 37.052802 -105.506468 266 34284ft 445kts
08-Oct-20 19:13 37.036580 -105.660078 266 34284ft 445kts
08-Oct-20 19:14 37.019959 -105.815437 266 34288ft 445kts
08-Oct-20 19:15 37.003218 -105.970040 266 34342ft 446kts
08-Oct-20 19:16 36.986140 -106.124164 265 34398ft 444kts
08-Oct-20 19:17 36.968819 -106.278174 265 34395ft 443kts
08-Oct-20 19:18 36.951346 -106.431720 265 34394ft 443kts
08-Oct-20 19:19 36.933799 -106.584150 265 34393ft 443kts
08-Oct-20 19:20 36.916055 -106.736470 264 34398ft 442kts
08-Oct-20 19:21 36.897964 -106.890044 264 34344ft 442kts
08-Oct-20 19:22 36.879822 -107.042325 264 34231ft 441kts
08-Oct-20 19:23 36.861504 -107.194367 264 34216ft 441kts
08-Oct-20 19:24 36.843104 -107.345421 264 34214ft 440kts
08-Oct-20 19:25 36.824515 -107.496383 264 34214ft 439kts
08-Oct-20 19:26 36.805826 -107.646557 264 34213ft 439kts
08-Oct-20 19:27 36.786848 -107.797479 263 34219ft 439kts
08-Oct-20 19:28 36.767743 -107.947813 263 34218ft 439kts
08-Oct-20 19:29 36.748535 -108.097117 262 34194ft 435kts
08-Oct-20 19:30 36.721528 -108.245120 259 34147ft 437kts
08-Oct-20 19:31 36.694238 -108.392402 259 34142ft 438kts
08-Oct-20 19:32 36.666622 -108.540534 259 34141ft 438kts
08-Oct-20 19:33 36.638767 -108.688878 259 34150ft 438kts
08-Oct-20 19:34 36.610766 -108.836942 259 34152ft 437kts
08-Oct-20 19:35 36.582691 -108.984303 259 34156ft 437kts
08-Oct-20 19:36 36.554334 -109.132077 259 34179ft 438kts
08-Oct-20 19:37 36.525886 -109.279280 259 34193ft 438kts
08-Oct-20 19:38 36.497289 -109.426205 259 34195ft 436kts
08-Oct-20 19:39 36.468591 -109.572649 259 34196ft 436kts
08-Oct-20 19:40 36.439721 -109.718917 258 34204ft 437kts
08-Oct-20 19:41 36.410540 -109.865744 258 34202ft 437kts
08-Oct-20 19:42 36.381261 -110.012070 258 34182ft 437kts
08-Oct-20 19:43 36.351739 -110.158599 258 34142ft 437kts
08-Oct-20 19:44 36.322067 -110.304879 258 34134ft 436kts
08-Oct-20 19:45 36.292172 -110.451223 258 34133ft 436kts
08-Oct-20 19:46 36.262269 -110.596631 258 34132ft 435kts
08-Oct-20 19:47 36.232274 -110.741494 257 34139ft 435kts
08-Oct-20 19:48 36.202266 -110.885466 257 34138ft 433kts
08-Oct-20 19:49 36.171927 -111.030148 257 34137ft 433kts
08-Oct-20 19:50 36.141953 -111.172153 257 34136ft 432kts
08-Oct-20 19:51 36.111886 -111.314757 257 34135ft 431kts
08-Oct-20 19:52 36.082053 -111.457766 257 34132ft 431kts
08-Oct-20 19:53 36.051941 -111.601166 257 34131ft 429kts
08-Oct-20 19:54 36.022200 -111.741892 256 34139ft 429kts
08-Oct-20 19:55 35.992562 -111.881247 256 34142ft 429kts
08-Oct-20 19:56 35.966950 -112.001001 256 34169ft 429kts
08-Oct-20 19:57 35.940558 -112.123747 256 34188ft 429kts
08-Oct-20 19:58 35.913349 -112.249600 256 34194ft 429kts
08-Oct-20 19:59 35.889305 -112.360246 256 34200ft 429kts
08-Oct-20 20:00 35.849961 -112.540138 256 34210ft 429kts
08-Oct-20 20:01 35.819041 -112.680545 255 34223ft 429kts
08-Oct-20 20:02 35.787508 -112.822881 255 34218ft 430kts
08-Oct-20 20:03 35.756304 -112.962868 255 34128ft 431kts
08-Oct-20 20:04 35.724547 -113.104484 255 34063ft 432kts
08-Oct-20 20:05 35.692456 -113.246720 255 34062ft 432kts
08-Oct-20 20:06 35.660139 -113.389104 254 34060ft 432kts
08-Oct-20 20:07 35.627495 -113.532081 254 34059ft 433kts
08-Oct-20 20:08 35.590761 -113.670431 251 34065ft 433kts
08-Oct-20 20:09 35.552680 -113.811083 251 34065ft 433kts
08-Oct-20 20:10 35.514706 -113.950669 251 34064ft 433kts
08-Oct-20 20:11 35.476325 -114.091046 251 34005ft 433kts
08-Oct-20 20:12 35.437916 -114.230780 251 33892ft 433kts
08-Oct-20 20:13 35.399334 -114.370435 251 33848ft 433kts
08-Oct-20 20:14 35.360644 -114.509774 251 33824ft 433kts
08-Oct-20 20:15 35.321689 -114.649347 251 33819ft 433kts
08-Oct-20 20:16 35.283322 -114.786126 251 33827ft 433kts
08-Oct-20 20:17 35.245153 -114.925786 252 33826ft 433kts
08-Oct-20 20:18 35.209372 -115.066314 252 33847ft 433kts
08-Oct-20 20:20 35.173725 -115.205423 252 33883ft 433kts
08-Oct-20 20:21 35.137647 -115.345460 252 33886ft 433kts
08-Oct-20 20:22 35.101319 -115.486490 252 32527ft 439kts
08-Oct-20 20:23 35.064260 -115.629627 252 30065ft 448kts
08-Oct-20 20:24 35.027398 -115.771245 251 27799ft 445kts
08-Oct-20 20:25 34.990324 -115.913600 251 25842ft 434kts
08-Oct-20 20:26 34.953996 -116.052317 251 24021ft 425kts
08-Oct-20 20:27 34.912993 -116.171504 241 23044ft 366kts
08-Oct-20 20:28 34.865985 -116.278456 241 21597ft 354kts
08-Oct-20 20:29 34.819126 -116.385435 241 21228ft 357kts
08-Oct-20 20:30 34.766457 -116.487339 234 20256ft 353kts
08-Oct-20 20:31 34.709591 -116.583225 234 18784ft 346kts
08-Oct-20 20:32 34.654603 -116.675662 234 17271ft 340kts
08-Oct-20 20:33 34.599840 -116.768801 239 15657ft 335kts
08-Oct-20 20:33 34.562664 -116.850965 240 14355ft 333kts
08-Oct-20 20:35 34.499226 -116.955181 229 12532ft 327kts
08-Oct-20 20:35 34.448433 -117.023005 215 11235ft 325kts
08-Oct-20 20:37 34.357595 -117.081836 208 9953ft 288kts
08-Oct-20 20:37 34.299705 -117.117434 207 10007ft 277kts
08-Oct-20 20:39 34.216070 -117.159259 201 10008ft 278kts
08-Oct-20 20:39 34.155459 -117.186650 201 9877ft 282kts
08-Oct-20 20:40 34.085336 -117.224986 218 7212ft 267kts
08-Oct-20 20:41 34.055214 -117.293455 261 5619ft 226kts
08-Oct-20 20:42 34.054646 -117.368867 271 4782ft 230kts
08-Oct-20 20:43 34.054849 -117.442010 268 3085ft 204kts
08-Oct-20 20:44 34.055145 -117.499946 268 2313ft 152kts
08-Oct-20 20:45 34.055043 -117.550726 268 1466ft 148kts
08-Oct-20 20:46 34.054963 -117.596499 269 950ft 81kts
08-Oct-20 20:47 34.054118 -117.602120 178 950ft 5kts
08-Oct-20 20:48 34.053859 -117.598477 90 950ft 16kts
08-Oct-20 20:49 34.053859 -117.593584 90 950ft 16kts
08-Oct-20 20:50 34.053874 -117.586552 89 950ft 22kts
08-Oct-20 20:51 34.052408 -117.580915 111 950ft 14kts
08-Oct-20 20:52 34.050869 -117.579647 92 950ft 0kts
08-Oct-20 20:53 34.050869 -117.579647 92 950ft 0kts
08-Oct-20 20:54 34.050869 -117.579647 92 950ft 0kts

Navigation Log

Ident Type
Flight plan parsing failed, navigation log unavailable